sensor_id;sensor_type;location;lat;lon;timestamp;P1;durP1;ratioP1;P2;durP2;ratioP2
62435;SDS011;48480;50.252;18.848;2024-02-16T00:01:30;14.20;;;8.70;;
62435;SDS011;48480;50.252;18.848;2024-02-16T00:04:14;13.30;;;8.70;;
62435;SDS011;48480;50.252;18.848;2024-02-16T00:06:59;16.60;;;9.40;;
62435;SDS011;48480;50.252;18.848;2024-02-16T00:09:43;16.30;;;9.40;;
62435;SDS011;48480;50.252;18.848;2024-02-16T00:12:27;18.70;;;11.50;;
62435;SDS011;48480;50.252;18.848;2024-02-16T00:15:11;16.40;;;10.10;;
62435;SDS011;48480;50.252;18.848;2024-02-16T00:17:55;15.80;;;8.20;;
62435;SDS011;48480;50.252;18.848;2024-02-16T00:20:40;14.60;;;7.80;;
62435;SDS011;48480;50.252;18.848;2024-02-16T00:23:23;12.80;;;8.00;;
62435;SDS011;48480;50.252;18.848;2024-02-16T00:26:08;16.50;;;10.40;;
62435;SDS011;48480;50.252;18.848;2024-02-16T00:28:52;15.40;;;9.20;;
62435;SDS011;48480;50.252;18.848;2024-02-16T00:31:36;15.40;;;8.90;;
62435;SDS011;48480;50.252;18.848;2024-02-16T00:34:20;12.50;;;8.50;;
62435;SDS011;48480;50.252;18.848;2024-02-16T00:37:04;10.20;;;7.40;;
62435;SDS011;48480;50.252;18.848;2024-02-16T00:39:52;12.20;;;8.00;;
62435;SDS011;48480;50.252;18.848;2024-02-16T00:42:38;13.10;;;7.70;;
62435;SDS011;48480;50.252;18.848;2024-02-16T00:45:22;15.40;;;8.20;;
62435;SDS011;48480;50.252;18.848;2024-02-16T00:48:06;14.30;;;8.60;;
62435;SDS011;48480;50.252;18.848;2024-02-16T00:50:51;12.00;;;8.30;;
62435;SDS011;48480;50.252;18.848;2024-02-16T00:53:35;10.80;;;7.70;;
62435;SDS011;48480;50.252;18.848;2024-02-16T00:56:18;11.50;;;7.80;;
62435;SDS011;48480;50.252;18.848;2024-02-16T00:59:02;12.50;;;7.80;;
62435;SDS011;48480;50.252;18.848;2024-02-16T01:01:47;12.70;;;8.20;;
62435;SDS011;48480;50.252;18.848;2024-02-16T01:04:31;11.30;;;7.40;;
62435;SDS011;48480;50.252;18.848;2024-02-16T01:07:15;11.60;;;6.30;;
62435;SDS011;48480;50.252;18.848;2024-02-16T01:09:59;12.40;;;6.60;;
62435;SDS011;48480;50.252;18.848;2024-02-16T01:12:43;11.80;;;6.50;;
62435;SDS011;48480;50.252;18.848;2024-02-16T01:15:27;10.90;;;6.80;;
62435;SDS011;48480;50.252;18.848;2024-02-16T01:18:12;9.90;;;6.20;;
62435;SDS011;48480;50.252;18.848;2024-02-16T01:20:56;11.10;;;7.10;;
62435;SDS011;48480;50.252;18.848;2024-02-16T01:23:41;12.60;;;7.70;;
62435;SDS011;48480;50.252;18.848;2024-02-16T01:26:25;13.10;;;7.30;;
62435;SDS011;48480;50.252;18.848;2024-02-16T01:29:09;13.10;;;7.10;;
62435;SDS011;48480;50.252;18.848;2024-02-16T01:31:53;13.00;;;7.00;;
62435;SDS011;48480;50.252;18.848;2024-02-16T01:34:37;11.70;;;6.10;;
62435;SDS011;48480;50.252;18.848;2024-02-16T01:37:23;10.20;;;6.20;;
62435;SDS011;48480;50.252;18.848;2024-02-16T01:40:10;11.60;;;7.20;;
62435;SDS011;48480;50.252;18.848;2024-02-16T01:43:03;9.50;;;6.30;;
62435;SDS011;48480;50.252;18.848;2024-02-16T01:45:47;10.20;;;6.70;;
62435;SDS011;48480;50.252;18.848;2024-02-16T01:48:31;11.80;;;7.80;;
62435;SDS011;48480;50.252;18.848;2024-02-16T01:51:15;9.80;;;6.60;;
62435;SDS011;48480;50.252;18.848;2024-02-16T01:54:00;11.40;;;7.70;;
62435;SDS011;48480;50.252;18.848;2024-02-16T01:56:45;11.30;;;7.40;;
62435;SDS011;48480;50.252;18.848;2024-02-16T01:59:29;12.30;;;8.10;;
62435;SDS011;48480;50.252;18.848;2024-02-16T02:02:14;13.60;;;7.70;;
62435;SDS011;48480;50.252;18.848;2024-02-16T02:04:58;18.60;;;10.50;;
62435;SDS011;48480;50.252;18.848;2024-02-16T02:07:42;16.30;;;11.70;;
62435;SDS011;48480;50.252;18.848;2024-02-16T02:10:26;19.20;;;12.60;;
62435;SDS011;48480;50.252;18.848;2024-02-16T02:13:10;24.70;;;13.80;;
62435;SDS011;48480;50.252;18.848;2024-02-16T02:15:54;23.70;;;15.00;;
62435;SDS011;48480;50.252;18.848;2024-02-16T02:18:39;24.70;;;15.90;;
62435;SDS011;48480;50.252;18.848;2024-02-16T02:21:23;26.20;;;17.50;;
62435;SDS011;48480;50.252;18.848;2024-02-16T02:24:07;33.10;;;19.90;;
62435;SDS011;48480;50.252;18.848;2024-02-16T02:26:51;28.40;;;18.80;;
62435;SDS011;48480;50.252;18.848;2024-02-16T02:29:35;29.20;;;18.70;;
62435;SDS011;48480;50.252;18.848;2024-02-16T02:32:19;31.10;;;19.90;;
62435;SDS011;48480;50.252;18.848;2024-02-16T02:35:03;32.90;;;20.20;;
62435;SDS011;48480;50.252;18.848;2024-02-16T02:37:49;32.10;;;20.20;;
62435;SDS011;48480;50.252;18.848;2024-02-16T02:40:33;34.60;;;22.20;;
62435;SDS011;48480;50.252;18.848;2024-02-16T02:43:17;37.10;;;23.40;;
62435;SDS011;48480;50.252;18.848;2024-02-16T02:46:02;41.10;;;25.50;;
62435;SDS011;48480;50.252;18.848;2024-02-16T02:48:46;36.90;;;25.00;;
62435;SDS011;48480;50.252;18.848;2024-02-16T02:51:30;40.60;;;24.90;;
62435;SDS011;48480;50.252;18.848;2024-02-16T02:54:14;42.90;;;26.20;;
62435;SDS011;48480;50.252;18.848;2024-02-16T02:56:59;39.80;;;24.90;;
62435;SDS011;48480;50.252;18.848;2024-02-16T02:59:43;37.60;;;24.20;;
62435;SDS011;48480;50.252;18.848;2024-02-16T03:02:28;43.00;;;24.90;;
62435;SDS011;48480;50.252;18.848;2024-02-16T03:05:13;35.40;;;21.80;;
62435;SDS011;48480;50.252;18.848;2024-02-16T03:07:57;41.50;;;25.30;;
62435;SDS011;48480;50.252;18.848;2024-02-16T03:10:42;36.90;;;22.90;;
62435;SDS011;48480;50.252;18.848;2024-02-16T03:13:27;39.40;;;24.70;;
62435;SDS011;48480;50.252;18.848;2024-02-16T03:16:12;34.90;;;20.10;;
62435;SDS011;48480;50.252;18.848;2024-02-16T03:18:56;35.90;;;23.60;;
62435;SDS011;48480;50.252;18.848;2024-02-16T03:21:40;40.30;;;25.30;;
62435;SDS011;48480;50.252;18.848;2024-02-16T03:24:24;35.60;;;22.80;;
62435;SDS011;48480;50.252;18.848;2024-02-16T03:27:08;33.20;;;19.80;;
62435;SDS011;48480;50.252;18.848;2024-02-16T03:29:54;33.60;;;22.90;;
62435;SDS011;48480;50.252;18.848;2024-02-16T03:32:38;30.00;;;19.80;;
62435;SDS011;48480;50.252;18.848;2024-02-16T03:35:22;36.90;;;23.10;;
62435;SDS011;48480;50.252;18.848;2024-02-16T03:38:07;37.40;;;24.70;;
62435;SDS011;48480;50.252;18.848;2024-02-16T03:40:51;38.30;;;23.50;;
62435;SDS011;48480;50.252;18.848;2024-02-16T03:43:35;34.40;;;22.60;;
62435;SDS011;48480;50.252;18.848;2024-02-16T03:46:19;37.80;;;21.70;;
62435;SDS011;48480;50.252;18.848;2024-02-16T03:49:03;33.10;;;20.60;;
62435;SDS011;48480;50.252;18.848;2024-02-16T03:51:48;32.10;;;20.90;;
62435;SDS011;48480;50.252;18.848;2024-02-16T03:54:32;32.90;;;21.20;;
62435;SDS011;48480;50.252;18.848;2024-02-16T03:57:16;34.60;;;24.20;;
62435;SDS011;48480;50.252;18.848;2024-02-16T04:00:00;34.10;;;23.80;;
62435;SDS011;48480;50.252;18.848;2024-02-16T04:02:44;38.90;;;24.50;;
62435;SDS011;48480;50.252;18.848;2024-02-16T04:05:28;36.70;;;24.70;;
62435;SDS011;48480;50.252;18.848;2024-02-16T04:08:16;30.80;;;22.20;;
62435;SDS011;48480;50.252;18.848;2024-02-16T04:11:00;32.20;;;22.70;;
62435;SDS011;48480;50.252;18.848;2024-02-16T04:13:44;30.30;;;20.50;;
62435;SDS011;48480;50.252;18.848;2024-02-16T04:16:28;32.30;;;21.10;;
62435;SDS011;48480;50.252;18.848;2024-02-16T04:19:12;29.00;;;18.20;;
62435;SDS011;48480;50.252;18.848;2024-02-16T04:21:56;32.00;;;21.10;;
62435;SDS011;48480;50.252;18.848;2024-02-16T04:24:40;33.30;;;22.30;;
62435;SDS011;48480;50.252;18.848;2024-02-16T04:27:24;36.30;;;23.40;;
62435;SDS011;48480;50.252;18.848;2024-02-16T04:30:08;33.00;;;22.40;;
62435;SDS011;48480;50.252;18.848;2024-02-16T04:32:53;32.80;;;22.30;;
62435;SDS011;48480;50.252;18.848;2024-02-16T04:35:37;34.70;;;21.80;;
62435;SDS011;48480;50.252;18.848;2024-02-16T04:38:22;31.40;;;20.50;;
62435;SDS011;48480;50.252;18.848;2024-02-16T04:41:06;28.50;;;18.90;;
62435;SDS011;48480;50.252;18.848;2024-02-16T04:43:50;22.00;;;14.20;;
62435;SDS011;48480;50.252;18.848;2024-02-16T04:46:34;30.90;;;20.30;;
62435;SDS011;48480;50.252;18.848;2024-02-16T04:49:18;32.90;;;21.70;;
62435;SDS011;48480;50.252;18.848;2024-02-16T04:52:02;35.10;;;22.30;;
62435;SDS011;48480;50.252;18.848;2024-02-16T04:54:47;35.60;;;23.20;;
62435;SDS011;48480;50.252;18.848;2024-02-16T04:57:31;29.40;;;18.60;;
62435;SDS011;48480;50.252;18.848;2024-02-16T05:00:16;30.60;;;18.60;;
62435;SDS011;48480;50.252;18.848;2024-02-16T05:03:01;27.20;;;19.50;;
62435;SDS011;48480;50.252;18.848;2024-02-16T05:05:44;33.40;;;20.60;;
62435;SDS011;48480;50.252;18.848;2024-02-16T05:08:29;31.20;;;20.60;;
62435;SDS011;48480;50.252;18.848;2024-02-16T05:11:13;32.30;;;20.90;;
62435;SDS011;48480;50.252;18.848;2024-02-16T05:13:57;32.20;;;21.40;;
62435;SDS011;48480;50.252;18.848;2024-02-16T05:16:43;30.90;;;21.70;;
62435;SDS011;48480;50.252;18.848;2024-02-16T05:19:28;33.20;;;20.50;;
62435;SDS011;48480;50.252;18.848;2024-02-16T05:22:15;27.50;;;18.00;;
62435;SDS011;48480;50.252;18.848;2024-02-16T05:25:01;30.60;;;18.70;;
62435;SDS011;48480;50.252;18.848;2024-02-16T05:27:46;32.00;;;18.70;;
62435;SDS011;48480;50.252;18.848;2024-02-16T05:30:31;31.50;;;19.10;;
62435;SDS011;48480;50.252;18.848;2024-02-16T05:33:15;24.80;;;17.10;;
62435;SDS011;48480;50.252;18.848;2024-02-16T05:35:59;22.30;;;16.10;;
62435;SDS011;48480;50.252;18.848;2024-02-16T05:38:42;29.40;;;20.20;;
62435;SDS011;48480;50.252;18.848;2024-02-16T05:41:27;33.10;;;20.10;;
62435;SDS011;48480;50.252;18.848;2024-02-16T05:44:10;29.10;;;19.30;;
62435;SDS011;48480;50.252;18.848;2024-02-16T05:46:54;29.90;;;18.50;;
62435;SDS011;48480;50.252;18.848;2024-02-16T05:49:38;27.40;;;18.00;;
62435;SDS011;48480;50.252;18.848;2024-02-16T05:52:23;24.20;;;17.40;;
62435;SDS011;48480;50.252;18.848;2024-02-16T05:55:07;16.00;;;10.40;;
62435;SDS011;48480;50.252;18.848;2024-02-16T05:57:52;28.00;;;17.30;;
62435;SDS011;48480;50.252;18.848;2024-02-16T06:00:36;29.70;;;19.50;;
62435;SDS011;48480;50.252;18.848;2024-02-16T06:03:21;24.10;;;15.50;;
62435;SDS011;48480;50.252;18.848;2024-02-16T06:06:05;27.90;;;20.00;;
62435;SDS011;48480;50.252;18.848;2024-02-16T06:08:51;28.50;;;19.10;;
62435;SDS011;48480;50.252;18.848;2024-02-16T06:11:36;25.50;;;16.30;;
62435;SDS011;48480;50.252;18.848;2024-02-16T06:14:21;25.40;;;17.20;;
62435;SDS011;48480;50.252;18.848;2024-02-16T06:17:07;25.60;;;16.90;;
62435;SDS011;48480;50.252;18.848;2024-02-16T06:19:51;26.80;;;17.30;;
62435;SDS011;48480;50.252;18.848;2024-02-16T06:22:36;27.60;;;18.80;;
62435;SDS011;48480;50.252;18.848;2024-02-16T06:25:21;27.60;;;18.50;;
62435;SDS011;48480;50.252;18.848;2024-02-16T06:28:04;30.70;;;20.80;;
62435;SDS011;48480;50.252;18.848;2024-02-16T06:30:49;27.70;;;19.70;;
62435;SDS011;48480;50.252;18.848;2024-02-16T06:33:33;27.50;;;19.50;;
62435;SDS011;48480;50.252;18.848;2024-02-16T06:36:17;24.90;;;16.30;;
62435;SDS011;48480;50.252;18.848;2024-02-16T06:39:02;26.50;;;17.90;;
62435;SDS011;48480;50.252;18.848;2024-02-16T06:41:47;25.70;;;15.70;;
62435;SDS011;48480;50.252;18.848;2024-02-16T06:44:31;26.80;;;17.20;;
62435;SDS011;48480;50.252;18.848;2024-02-16T06:47:17;28.00;;;18.20;;
62435;SDS011;48480;50.252;18.848;2024-02-16T06:50:02;27.30;;;17.60;;
62435;SDS011;48480;50.252;18.848;2024-02-16T06:52:46;28.10;;;19.00;;
62435;SDS011;48480;50.252;18.848;2024-02-16T06:55:30;25.80;;;16.50;;
62435;SDS011;48480;50.252;18.848;2024-02-16T06:58:15;25.10;;;15.00;;
62435;SDS011;48480;50.252;18.848;2024-02-16T07:00:59;27.50;;;17.40;;
62435;SDS011;48480;50.252;18.848;2024-02-16T07:03:46;23.70;;;17.10;;
62435;SDS011;48480;50.252;18.848;2024-02-16T07:06:31;30.40;;;17.30;;
62435;SDS011;48480;50.252;18.848;2024-02-16T07:09:15;24.30;;;16.70;;
62435;SDS011;48480;50.252;18.848;2024-02-16T07:12:00;25.20;;;18.50;;
62435;SDS011;48480;50.252;18.848;2024-02-16T07:14:44;26.50;;;19.00;;
62435;SDS011;48480;50.252;18.848;2024-02-16T07:17:29;24.40;;;13.80;;
62435;SDS011;48480;50.252;18.848;2024-02-16T07:20:13;24.50;;;16.60;;
62435;SDS011;48480;50.252;18.848;2024-02-16T07:22:59;22.60;;;16.10;;
62435;SDS011;48480;50.252;18.848;2024-02-16T07:25:43;21.10;;;15.40;;
62435;SDS011;48480;50.252;18.848;2024-02-16T07:28:27;21.80;;;15.90;;
62435;SDS011;48480;50.252;18.848;2024-02-16T07:31:11;25.00;;;16.10;;
62435;SDS011;48480;50.252;18.848;2024-02-16T07:33:55;26.90;;;16.60;;
62435;SDS011;48480;50.252;18.848;2024-02-16T07:36:40;26.50;;;16.40;;
62435;SDS011;48480;50.252;18.848;2024-02-16T07:39:25;24.60;;;15.70;;
62435;SDS011;48480;50.252;18.848;2024-02-16T07:42:09;23.20;;;15.60;;
62435;SDS011;48480;50.252;18.848;2024-02-16T07:44:56;22.10;;;14.70;;
62435;SDS011;48480;50.252;18.848;2024-02-16T07:47:41;21.70;;;13.00;;
62435;SDS011;48480;50.252;18.848;2024-02-16T07:50:25;20.60;;;15.30;;
62435;SDS011;48480;50.252;18.848;2024-02-16T07:53:09;21.40;;;15.10;;
62435;SDS011;48480;50.252;18.848;2024-02-16T07:55:55;22.00;;;15.20;;
62435;SDS011;48480;50.252;18.848;2024-02-16T07:58:40;23.40;;;14.60;;
62435;SDS011;48480;50.252;18.848;2024-02-16T08:01:25;20.90;;;15.10;;
62435;SDS011;48480;50.252;18.848;2024-02-16T08:04:10;19.80;;;14.20;;
62435;SDS011;48480;50.252;18.848;2024-02-16T08:06:54;21.10;;;14.40;;
62435;SDS011;48480;50.252;18.848;2024-02-16T08:09:38;22.60;;;15.10;;
62435;SDS011;48480;50.252;18.848;2024-02-16T08:12:23;23.10;;;15.40;;
62435;SDS011;48480;50.252;18.848;2024-02-16T08:15:09;18.40;;;14.00;;
62435;SDS011;48480;50.252;18.848;2024-02-16T08:17:54;21.40;;;14.20;;
62435;SDS011;48480;50.252;18.848;2024-02-16T08:20:38;21.70;;;14.70;;
62435;SDS011;48480;50.252;18.848;2024-02-16T08:23:23;20.90;;;15.90;;
62435;SDS011;48480;50.252;18.848;2024-02-16T08:26:07;20.30;;;15.10;;
62435;SDS011;48480;50.252;18.848;2024-02-16T08:28:51;22.40;;;16.20;;
62435;SDS011;48480;50.252;18.848;2024-02-16T08:31:35;23.90;;;17.10;;
62435;SDS011;48480;50.252;18.848;2024-02-16T08:34:19;22.60;;;15.50;;
62435;SDS011;48480;50.252;18.848;2024-02-16T08:37:05;20.70;;;14.70;;
62435;SDS011;48480;50.252;18.848;2024-02-16T08:39:49;20.70;;;14.80;;
62435;SDS011;48480;50.252;18.848;2024-02-16T08:42:33;19.50;;;14.10;;
62435;SDS011;48480;50.252;18.848;2024-02-16T08:45:17;21.60;;;14.60;;
62435;SDS011;48480;50.252;18.848;2024-02-16T08:48:01;17.30;;;13.30;;
62435;SDS011;48480;50.252;18.848;2024-02-16T08:50:47;20.10;;;14.50;;
62435;SDS011;48480;50.252;18.848;2024-02-16T08:53:32;19.80;;;14.10;;
62435;SDS011;48480;50.252;18.848;2024-02-16T08:56:16;19.00;;;11.80;;
62435;SDS011;48480;50.252;18.848;2024-02-16T08:59:00;20.20;;;16.20;;
62435;SDS011;48480;50.252;18.848;2024-02-16T09:01:44;18.40;;;12.70;;
62435;SDS011;48480;50.252;18.848;2024-02-16T09:04:27;18.00;;;13.80;;
62435;SDS011;48480;50.252;18.848;2024-02-16T09:07:12;20.00;;;14.20;;
62435;SDS011;48480;50.252;18.848;2024-02-16T09:09:56;18.80;;;12.80;;
62435;SDS011;48480;50.252;18.848;2024-02-16T09:12:40;17.30;;;12.60;;
62435;SDS011;48480;50.252;18.848;2024-02-16T09:15:24;18.10;;;12.20;;
62435;SDS011;48480;50.252;18.848;2024-02-16T09:18:08;15.10;;;11.10;;
62435;SDS011;48480;50.252;18.848;2024-02-16T09:20:51;17.70;;;11.50;;
62435;SDS011;48480;50.252;18.848;2024-02-16T09:23:36;16.20;;;12.10;;
62435;SDS011;48480;50.252;18.848;2024-02-16T09:26:20;20.10;;;13.50;;
62435;SDS011;48480;50.252;18.848;2024-02-16T09:29:06;18.80;;;13.20;;
62435;SDS011;48480;50.252;18.848;2024-02-16T09:31:53;15.00;;;11.50;;
62435;SDS011;48480;50.252;18.848;2024-02-16T09:34:37;14.30;;;10.10;;
62435;SDS011;48480;50.252;18.848;2024-02-16T09:37:21;14.60;;;10.90;;
62435;SDS011;48480;50.252;18.848;2024-02-16T09:40:06;15.80;;;10.60;;
62435;SDS011;48480;50.252;18.848;2024-02-16T09:42:52;12.70;;;8.10;;
62435;SDS011;48480;50.252;18.848;2024-02-16T09:48:14;9.60;;;6.60;;
62435;SDS011;48480;50.252;18.848;2024-02-16T09:51:02;10.10;;;6.30;;
62435;SDS011;48480;50.252;18.848;2024-02-16T09:53:49;11.00;;;5.90;;
62435;SDS011;48480;50.252;18.848;2024-02-16T09:56:39;9.80;;;6.30;;
62435;SDS011;48480;50.252;18.848;2024-02-16T09:59:23;11.10;;;5.90;;
62435;SDS011;48480;50.252;18.848;2024-02-16T10:02:07;10.10;;;6.20;;
62435;SDS011;48480;50.252;18.848;2024-02-16T10:04:53;9.20;;;7.20;;
62435;SDS011;48480;50.252;18.848;2024-02-16T10:07:37;9.30;;;6.10;;
62435;SDS011;48480;50.252;18.848;2024-02-16T10:13:10;8.60;;;6.40;;
62435;SDS011;48480;50.252;18.848;2024-02-16T10:16:07;13.40;;;7.30;;
62435;SDS011;48480;50.252;18.848;2024-02-16T10:18:54;10.40;;;7.00;;
62435;SDS011;48480;50.252;18.848;2024-02-16T10:21:39;10.40;;;7.30;;
62435;SDS011;48480;50.252;18.848;2024-02-16T10:24:23;8.60;;;6.80;;
62435;SDS011;48480;50.252;18.848;2024-02-16T10:27:14;9.00;;;5.90;;
62435;SDS011;48480;50.252;18.848;2024-02-16T10:29:59;9.60;;;6.60;;
62435;SDS011;48480;50.252;18.848;2024-02-16T10:32:44;7.70;;;5.80;;
62435;SDS011;48480;50.252;18.848;2024-02-16T10:35:28;9.30;;;6.20;;
62435;SDS011;48480;50.252;18.848;2024-02-16T10:38:14;10.40;;;6.70;;
62435;SDS011;48480;50.252;18.848;2024-02-16T10:40:59;9.50;;;7.20;;
62435;SDS011;48480;50.252;18.848;2024-02-16T10:43:45;10.20;;;6.30;;
62435;SDS011;48480;50.252;18.848;2024-02-16T10:46:33;11.70;;;7.40;;
62435;SDS011;48480;50.252;18.848;2024-02-16T10:49:19;9.20;;;6.40;;
62435;SDS011;48480;50.252;18.848;2024-02-16T10:52:04;8.90;;;6.60;;
62435;SDS011;48480;50.252;18.848;2024-02-16T10:54:50;10.00;;;5.80;;
62435;SDS011;48480;50.252;18.848;2024-02-16T10:57:48;7.40;;;5.00;;
62435;SDS011;48480;50.252;18.848;2024-02-16T11:00:37;5.80;;;4.10;;
62435;SDS011;48480;50.252;18.848;2024-02-16T11:03:37;12.30;;;10.90;;
62435;SDS011;48480;50.252;18.848;2024-02-16T11:06:21;9.10;;;5.10;;
62435;SDS011;48480;50.252;18.848;2024-02-16T11:09:05;6.20;;;4.80;;
62435;SDS011;48480;50.252;18.848;2024-02-16T11:11:54;7.00;;;4.90;;
62435;SDS011;48480;50.252;18.848;2024-02-16T11:14:42;7.60;;;4.40;;
62435;SDS011;48480;50.252;18.848;2024-02-16T11:17:28;8.70;;;4.30;;
62435;SDS011;48480;50.252;18.848;2024-02-16T11:20:12;6.60;;;4.50;;
62435;SDS011;48480;50.252;18.848;2024-02-16T11:23:08;6.70;;;4.50;;
62435;SDS011;48480;50.252;18.848;2024-02-16T11:25:52;6.90;;;4.20;;
62435;SDS011;48480;50.252;18.848;2024-02-16T11:28:37;6.30;;;4.40;;
62435;SDS011;48480;50.252;18.848;2024-02-16T11:31:21;6.20;;;4.40;;
62435;SDS011;48480;50.252;18.848;2024-02-16T11:34:06;7.30;;;4.70;;
62435;SDS011;48480;50.252;18.848;2024-02-16T11:36:52;7.40;;;5.10;;
62435;SDS011;48480;50.252;18.848;2024-02-16T11:39:39;7.80;;;5.00;;
62435;SDS011;48480;50.252;18.848;2024-02-16T11:42:27;9.10;;;4.80;;
62435;SDS011;48480;50.252;18.848;2024-02-16T11:45:11;7.80;;;5.10;;
62435;SDS011;48480;50.252;18.848;2024-02-16T11:48:08;7.50;;;5.30;;
62435;SDS011;48480;50.252;18.848;2024-02-16T11:51:00;9.10;;;5.60;;
62435;SDS011;48480;50.252;18.848;2024-02-16T11:53:54;7.20;;;5.60;;
62435;SDS011;48480;50.252;18.848;2024-02-16T11:56:40;9.00;;;5.10;;
62435;SDS011;48480;50.252;18.848;2024-02-16T11:59:26;8.40;;;5.70;;
62435;SDS011;48480;50.252;18.848;2024-02-16T12:02:16;9.30;;;5.70;;
62435;SDS011;48480;50.252;18.848;2024-02-16T12:05:02;10.60;;;7.10;;
62435;SDS011;48480;50.252;18.848;2024-02-16T12:07:47;9.10;;;5.90;;
62435;SDS011;48480;50.252;18.848;2024-02-16T12:10:31;8.10;;;5.30;;
62435;SDS011;48480;50.252;18.848;2024-02-16T12:13:19;7.90;;;5.50;;
62435;SDS011;48480;50.252;18.848;2024-02-16T12:16:04;9.20;;;5.30;;
62435;SDS011;48480;50.252;18.848;2024-02-16T12:18:50;10.90;;;5.70;;
62435;SDS011;48480;50.252;18.848;2024-02-16T12:21:34;7.40;;;5.20;;
62435;SDS011;48480;50.252;18.848;2024-02-16T12:24:19;7.80;;;5.30;;
62435;SDS011;48480;50.252;18.848;2024-02-16T12:27:04;6.50;;;4.90;;
62435;SDS011;48480;50.252;18.848;2024-02-16T12:29:49;7.90;;;4.80;;
62435;SDS011;48480;50.252;18.848;2024-02-16T12:32:33;9.20;;;5.30;;
62435;SDS011;48480;50.252;18.848;2024-02-16T12:35:17;7.60;;;4.90;;
62435;SDS011;48480;50.252;18.848;2024-02-16T12:38:01;6.40;;;4.20;;
62435;SDS011;48480;50.252;18.848;2024-02-16T12:40:48;10.10;;;4.40;;
62435;SDS011;48480;50.252;18.848;2024-02-16T12:43:32;7.80;;;4.50;;
62435;SDS011;48480;50.252;18.848;2024-02-16T12:46:16;11.30;;;5.20;;
62435;SDS011;48480;50.252;18.848;2024-02-16T12:49:01;6.50;;;4.50;;
62435;SDS011;48480;50.252;18.848;2024-02-16T12:51:46;7.90;;;4.40;;
62435;SDS011;48480;50.252;18.848;2024-02-16T12:54:31;8.00;;;4.60;;
62435;SDS011;48480;50.252;18.848;2024-02-16T12:57:16;7.20;;;4.90;;
62435;SDS011;48480;50.252;18.848;2024-02-16T13:00:07;7.30;;;5.00;;
62435;SDS011;48480;50.252;18.848;2024-02-16T13:02:51;11.70;;;6.60;;
62435;SDS011;48480;50.252;18.848;2024-02-16T13:05:35;6.70;;;4.90;;
62435;SDS011;48480;50.252;18.848;2024-02-16T13:08:19;7.50;;;4.30;;
62435;SDS011;48480;50.252;18.848;2024-02-16T13:11:03;8.10;;;4.20;;
62435;SDS011;48480;50.252;18.848;2024-02-16T13:13:48;6.40;;;3.70;;
62435;SDS011;48480;50.252;18.848;2024-02-16T13:16:32;9.00;;;4.20;;
62435;SDS011;48480;50.252;18.848;2024-02-16T13:19:17;6.80;;;4.10;;
62435;SDS011;48480;50.252;18.848;2024-02-16T13:22:01;6.30;;;3.50;;
62435;SDS011;48480;50.252;18.848;2024-02-16T13:24:45;6.30;;;3.90;;
62435;SDS011;48480;50.252;18.848;2024-02-16T13:27:29;7.80;;;4.50;;
62435;SDS011;48480;50.252;18.848;2024-02-16T13:30:13;6.60;;;4.90;;
62435;SDS011;48480;50.252;18.848;2024-02-16T13:32:57;6.90;;;4.50;;
62435;SDS011;48480;50.252;18.848;2024-02-16T13:35:41;7.10;;;4.70;;
62435;SDS011;48480;50.252;18.848;2024-02-16T13:38:25;6.20;;;4.00;;
62435;SDS011;48480;50.252;18.848;2024-02-16T13:41:09;6.00;;;4.10;;
62435;SDS011;48480;50.252;18.848;2024-02-16T13:43:53;7.90;;;4.80;;
62435;SDS011;48480;50.252;18.848;2024-02-16T13:46:37;9.00;;;5.20;;
62435;SDS011;48480;50.252;18.848;2024-02-16T13:49:21;6.80;;;4.40;;
62435;SDS011;48480;50.252;18.848;2024-02-16T13:52:05;5.60;;;4.00;;
62435;SDS011;48480;50.252;18.848;2024-02-16T13:54:50;7.30;;;4.10;;
62435;SDS011;48480;50.252;18.848;2024-02-16T13:57:34;7.20;;;4.70;;
62435;SDS011;48480;50.252;18.848;2024-02-16T14:00:19;7.50;;;4.70;;
62435;SDS011;48480;50.252;18.848;2024-02-16T14:03:08;8.00;;;4.30;;
62435;SDS011;48480;50.252;18.848;2024-02-16T14:05:53;9.40;;;4.50;;
62435;SDS011;48480;50.252;18.848;2024-02-16T14:08:37;6.70;;;4.80;;
62435;SDS011;48480;50.252;18.848;2024-02-16T14:11:21;6.40;;;3.90;;
62435;SDS011;48480;50.252;18.848;2024-02-16T14:14:06;6.80;;;4.00;;
62435;SDS011;48480;50.252;18.848;2024-02-16T14:16:50;6.10;;;4.00;;
62435;SDS011;48480;50.252;18.848;2024-02-16T14:19:35;5.50;;;4.00;;
62435;SDS011;48480;50.252;18.848;2024-02-16T14:22:21;5.60;;;3.70;;
62435;SDS011;48480;50.252;18.848;2024-02-16T14:25:05;7.10;;;3.60;;
62435;SDS011;48480;50.252;18.848;2024-02-16T14:27:50;5.40;;;4.20;;
62435;SDS011;48480;50.252;18.848;2024-02-16T14:30:34;7.00;;;4.10;;
62435;SDS011;48480;50.252;18.848;2024-02-16T14:33:18;6.60;;;4.20;;
62435;SDS011;48480;50.252;18.848;2024-02-16T14:36:05;6.70;;;3.80;;
62435;SDS011;48480;50.252;18.848;2024-02-16T14:38:53;6.30;;;3.20;;
62435;SDS011;48480;50.252;18.848;2024-02-16T14:41:40;6.00;;;3.40;;
62435;SDS011;48480;50.252;18.848;2024-02-16T14:44:27;5.70;;;3.60;;
62435;SDS011;48480;50.252;18.848;2024-02-16T14:47:12;5.70;;;3.50;;
62435;SDS011;48480;50.252;18.848;2024-02-16T14:50:04;4.80;;;3.60;;
62435;SDS011;48480;50.252;18.848;2024-02-16T14:52:51;9.90;;;3.70;;
62435;SDS011;48480;50.252;18.848;2024-02-16T14:55:38;8.00;;;3.70;;
62435;SDS011;48480;50.252;18.848;2024-02-16T14:58:22;6.60;;;3.40;;
62435;SDS011;48480;50.252;18.848;2024-02-16T15:01:07;8.00;;;3.90;;
62435;SDS011;48480;50.252;18.848;2024-02-16T15:03:58;6.90;;;3.80;;
62435;SDS011;48480;50.252;18.848;2024-02-16T15:06:43;7.80;;;4.30;;
62435;SDS011;48480;50.252;18.848;2024-02-16T15:09:27;8.10;;;4.90;;
62435;SDS011;48480;50.252;18.848;2024-02-16T15:12:12;10.30;;;5.50;;
62435;SDS011;48480;50.252;18.848;2024-02-16T15:15:00;8.10;;;4.20;;
62435;SDS011;48480;50.252;18.848;2024-02-16T15:17:44;8.40;;;4.90;;
62435;SDS011;48480;50.252;18.848;2024-02-16T15:20:30;10.20;;;4.60;;
62435;SDS011;48480;50.252;18.848;2024-02-16T15:23:15;8.70;;;4.00;;
62435;SDS011;48480;50.252;18.848;2024-02-16T15:25:59;7.60;;;4.00;;
62435;SDS011;48480;50.252;18.848;2024-02-16T15:28:46;8.80;;;4.60;;
62435;SDS011;48480;50.252;18.848;2024-02-16T15:31:33;7.60;;;4.00;;
62435;SDS011;48480;50.252;18.848;2024-02-16T15:34:17;10.20;;;5.80;;
62435;SDS011;48480;50.252;18.848;2024-02-16T15:37:01;13.70;;;6.90;;
62435;SDS011;48480;50.252;18.848;2024-02-16T15:39:45;12.20;;;7.20;;
62435;SDS011;48480;50.252;18.848;2024-02-16T15:42:29;12.20;;;6.70;;
62435;SDS011;48480;50.252;18.848;2024-02-16T15:45:14;12.20;;;5.90;;
62435;SDS011;48480;50.252;18.848;2024-02-16T15:48:00;12.30;;;6.90;;
62435;SDS011;48480;50.252;18.848;2024-02-16T15:50:45;12.70;;;7.30;;
62435;SDS011;48480;50.252;18.848;2024-02-16T15:53:29;13.60;;;7.30;;
62435;SDS011;48480;50.252;18.848;2024-02-16T15:56:15;14.10;;;7.80;;
62435;SDS011;48480;50.252;18.848;2024-02-16T15:58:59;15.50;;;8.60;;
62435;SDS011;48480;50.252;18.848;2024-02-16T16:01:43;16.50;;;9.90;;
62435;SDS011;48480;50.252;18.848;2024-02-16T16:04:27;28.40;;;17.90;;
62435;SDS011;48480;50.252;18.848;2024-02-16T16:07:13;52.60;;;32.50;;